Time;durP1;ratioP1;P1;durP2;ratioP2;P2;SDS_P1;SDS_P2;PMS_P1;PMS_P2;Temp;Humidity;BMP_temperature;BMP_pressure;BME280_temperature;BME280_humidity;BME280_pressure;Samples;Min_cycle;Max_cycle;Signal;HPM_P1;HPM_P2
2023/12/04 00:01:55;;;;;;;15.30;10.20;;;2.20;99.90;;;;;;5078008;28;20113;-36
2023/12/04 00:04:21;;;;;;;17.73;9.90;;;2.20;99.90;;;;;;5067683;28;20416;-37
2023/12/04 00:06:47;;;;;;;18.92;11.85;;;2.20;99.90;;;;;;5080511;28;20339;-37
2023/12/04 00:09:12;;;;;;;15.77;10.07;;;2.20;99.90;;;;;;5066879;28;20714;-37
2023/12/04 00:11:41;;;;;;;17.02;10.80;;;2.20;99.90;;;;;;5079569;28;20052;-37
2023/12/04 00:14:06;;;;;;;18.70;10.93;;;2.20;99.90;;;;;;5076346;28;20020;-38
2023/12/04 00:16:38;;;;;;;17.45;10.90;;;2.20;99.90;;;;;;5060235;28;20032;-38
2023/12/04 00:19:03;;;;;;;19.77;10.93;;;2.20;99.90;;;;;;5069604;28;20034;-38
2023/12/04 00:21:29;;;;;;;17.67;10.50;;;2.20;99.90;;;;;;5060730;28;20587;-38
2023/12/04 00:23:54;;;;;;;18.95;11.82;;;2.20;99.90;;;;;;5066800;28;20129;-38
2023/12/04 00:26:20;;;;;;;18.60;11.15;;;2.20;99.90;;;;;;5062912;28;20113;-38
2023/12/04 00:28:45;;;;;;;19.63;11.48;;;2.20;99.90;;;;;;5065069;28;20023;-36
2023/12/04 00:31:11;;;;;;;18.52;10.93;;;2.20;99.90;;;;;;5066268;28;20122;-37
2023/12/04 00:33:36;;;;;;;17.85;10.90;;;2.20;99.90;;;;;;5062294;28;20025;-37
2023/12/04 00:36:09;;;;;;;19.23;11.45;;;2.20;99.90;;;;;;5069470;28;20017;-37
2023/12/04 00:38:34;;;;;;;18.40;11.90;;;2.20;99.90;;;;;;5061599;28;20043;-39
2023/12/04 00:41:00;;;;;;;19.10;11.25;;;2.20;99.90;;;;;;5071097;28;20376;-37
2023/12/04 00:43:26;;;;;;;17.77;11.05;;;2.20;99.90;;;;;;5061550;28;20900;-37
2023/12/04 00:45:51;;;;;;;17.27;10.75;;;2.20;99.90;;;;;;5069175;28;20549;-37
2023/12/04 00:48:17;;;;;;;17.48;10.80;;;2.30;99.90;;;;;;5060198;28;20055;-37
2023/12/04 00:50:42;;;;;;;19.55;11.00;;;2.30;99.90;;;;;;5071973;28;20028;-37
2023/12/04 00:53:08;;;;;;;17.13;10.60;;;2.30;99.90;;;;;;5059200;28;20020;-37
2023/12/04 00:55:33;;;;;;;18.15;11.27;;;2.20;99.90;;;;;;5071800;28;20102;-37
2023/12/04 00:57:59;;;;;;;19.60;11.40;;;2.30;99.90;;;;;;5060268;28;20050;-37
2023/12/04 01:00:24;;;;;;;18.30;11.35;;;2.20;99.90;;;;;;5069403;28;20060;-37
2023/12/04 01:02:51;;;;;;;19.02;11.48;;;2.20;99.90;;;;;;5060756;28;20435;-38
2023/12/04 01:05:17;;;;;;;17.92;11.38;;;2.20;99.90;;;;;;5067489;28;20032;-37
2023/12/04 01:07:42;;;;;;;18.38;11.45;;;2.20;99.90;;;;;;5062292;28;20453;-37
2023/12/04 01:10:08;;;;;;;18.10;11.82;;;2.20;99.90;;;;;;5062901;28;20036;-36
2023/12/04 01:12:34;;;;;;;18.75;11.40;;;2.20;99.90;;;;;;5072446;28;20491;-37
2023/12/04 01:15:00;;;;;;;17.15;10.88;;;2.20;99.90;;;;;;5075119;28;20036;-37
2023/12/04 01:17:27;;;;;;;19.52;11.73;;;2.20;99.90;;;;;;5069731;28;20028;-37
2023/12/04 01:19:52;;;;;;;18.23;11.40;;;2.20;99.90;;;;;;5077124;28;20036;-37
2023/12/04 01:22:19;;;;;;;17.80;10.35;;;2.20;99.90;;;;;;5067182;28;20024;-38
2023/12/04 01:24:44;;;;;;;17.73;10.55;;;2.20;99.90;;;;;;5077542;28;20028;-37
2023/12/04 01:27:11;;;;;;;18.83;12.00;;;2.20;99.90;;;;;;5067785;28;20515;-37
2023/12/04 01:29:36;;;;;;;18.95;11.40;;;2.20;99.90;;;;;;5079277;28;20106;-37
2023/12/04 01:32:02;;;;;;;18.88;11.27;;;2.20;99.90;;;;;;5066193;28;20550;-37
2023/12/04 01:34:27;;;;;;;16.80;10.57;;;2.20;99.90;;;;;;5080356;28;20036;-37
2023/12/04 01:36:53;;;;;;;18.08;10.90;;;2.20;99.90;;;;;;5068332;28;20124;-37
2023/12/04 01:39:18;;;;;;;19.67;10.65;;;2.20;99.90;;;;;;5082926;28;20028;-36
2023/12/04 01:41:44;;;;;;;18.63;11.55;;;2.20;99.90;;;;;;5072098;28;20033;-35
2023/12/04 01:44:09;;;;;;;20.20;11.80;;;2.20;99.90;;;;;;5079494;28;20395;-37
2023/12/04 01:46:36;;;;;;;18.98;11.02;;;2.20;99.90;;;;;;5075138;28;20020;-37
2023/12/04 01:49:03;;;;;;;18.88;10.23;;;2.20;99.90;;;;;;5076413;28;20079;-37
2023/12/04 01:51:29;;;;;;;18.00;11.07;;;2.20;99.90;;;;;;5077207;28;20029;-36
2023/12/04 01:53:59;;;;;;;20.02;11.65;;;2.20;99.90;;;;;;5074599;28;20114;-37
2023/12/04 01:56:27;;;;;;;17.23;10.82;;;2.20;99.90;;;;;;5077533;28;20044;-38
2023/12/04 01:58:53;;;;;;;18.38;10.15;;;2.20;99.90;;;;;;5073110;28;20051;-38
2023/12/04 02:01:20;;;;;;;18.98;11.63;;;2.20;99.90;;;;;;5080989;28;20527;-39
2023/12/04 02:03:45;;;;;;;16.63;10.18;;;2.20;99.90;;;;;;5070208;28;20084;-37
2023/12/04 02:06:12;;;;;;;16.48;10.55;;;2.10;99.90;;;;;;5080608;28;20470;-38
2023/12/04 02:08:40;;;;;;;17.27;10.68;;;2.10;99.90;;;;;;5070439;28;20023;-38
2023/12/04 02:11:06;;;;;;;19.60;10.93;;;2.10;99.90;;;;;;5081229;28;20127;-38
2023/12/04 02:13:31;;;;;;;15.98;10.30;;;2.10;99.90;;;;;;5074255;28;20016;-38
2023/12/04 02:16:01;;;;;;;15.82;10.18;;;2.10;99.90;;;;;;5061563;28;20031;-36
2023/12/04 02:18:26;;;;;;;17.52;11.07;;;2.10;99.90;;;;;;5074023;28;20030;-38
2023/12/04 02:20:53;;;;;;;16.38;10.27;;;2.10;99.90;;;;;;5062185;28;20025;-37
2023/12/04 02:23:18;;;;;;;16.23;9.95;;;2.10;99.90;;;;;;5072735;28;20032;-38
2023/12/04 02:25:44;;;;;;;14.48;9.82;;;2.10;99.90;;;;;;5060870;28;20044;-36
2023/12/04 02:28:13;;;;;;;14.93;10.05;;;2.10;99.90;;;;;;5070327;28;20055;-41
2023/12/04 02:30:41;;;;;;;15.88;9.88;;;2.10;99.90;;;;;;5064706;28;20112;-36
2023/12/04 02:33:07;;;;;;;17.67;10.32;;;2.10;99.90;;;;;;5067683;28;20559;-38
2023/12/04 02:35:35;;;;;;;16.52;9.77;;;2.10;99.90;;;;;;5067122;28;20024;-38
2023/12/04 02:38:02;;;;;;;15.27;9.70;;;2.10;99.90;;;;;;5065474;28;20032;-38
2023/12/04 02:40:28;;;;;;;15.32;10.18;;;2.10;99.90;;;;;;5068234;28;20028;-37
2023/12/04 02:42:54;;;;;;;15.77;10.25;;;2.10;99.90;;;;;;5063516;28;20024;-38
2023/12/04 02:45:19;;;;;;;14.13;9.15;;;2.10;99.90;;;;;;5070675;28;20131;-38
2023/12/04 02:47:45;;;;;;;16.50;9.93;;;2.10;99.90;;;;;;5062426;28;20028;-37
2023/12/04 02:50:10;;;;;;;16.55;10.80;;;2.10;99.90;;;;;;5072023;28;20772;-38
2023/12/04 02:52:36;;;;;;;16.80;10.32;;;2.10;99.90;;;;;;5062273;28;20047;-37
2023/12/04 02:55:02;;;;;;;14.77;9.45;;;2.10;99.90;;;;;;5075038;28;20032;-36
2023/12/04 02:57:27;;;;;;;17.75;10.13;;;2.10;99.90;;;;;;5081877;28;20035;-36
2023/12/04 02:59:53;;;;;;;16.75;10.02;;;2.10;99.90;;;;;;5080568;28;20032;-39
2023/12/04 03:02:18;;;;;;;13.93;9.50;;;2.10;99.90;;;;;;5081240;28;20497;-36
2023/12/04 03:04:45;;;;;;;15.20;9.48;;;2.10;99.90;;;;;;5081171;28;20028;-36
2023/12/04 03:07:11;;;;;;;15.45;9.80;;;2.10;99.90;;;;;;5080583;28;20032;-36
2023/12/04 03:09:36;;;;;;;15.77;10.68;;;2.10;99.90;;;;;;5080450;28;20042;-38
2023/12/04 03:12:02;;;;;;;13.15;8.75;;;2.10;99.90;;;;;;5080580;28;20073;-37
2023/12/04 03:14:27;;;;;;;14.52;9.15;;;2.10;99.90;;;;;;5079898;28;20580;-37
2023/12/04 03:16:53;;;;;;;14.70;8.98;;;2.10;99.90;;;;;;5080590;28;20024;-37
2023/12/04 03:19:18;;;;;;;13.55;9.02;;;2.10;99.90;;;;;;5080772;28;20056;-37
2023/12/04 03:21:44;;;;;;;15.80;9.05;;;2.10;99.90;;;;;;5079870;28;20132;-37
2023/12/04 03:24:09;;;;;;;14.35;8.52;;;2.20;99.90;;;;;;5079915;28;20040;-37
2023/12/04 03:26:36;;;;;;;15.20;9.48;;;2.20;99.90;;;;;;5080639;28;20089;-38
2023/12/04 03:29:02;;;;;;;14.13;9.23;;;2.20;99.90;;;;;;5079485;28;20024;-38
2023/12/04 03:31:28;;;;;;;14.43;9.20;;;2.10;99.90;;;;;;5080900;28;20084;-39
2023/12/04 03:33:53;;;;;;;14.25;9.43;;;2.20;99.90;;;;;;5081104;28;20111;-38
2023/12/04 03:36:19;;;;;;;14.07;9.02;;;2.20;99.90;;;;;;5080165;28;20131;-37
2023/12/04 03:38:45;;;;;;;12.82;9.20;;;2.20;99.90;;;;;;5080258;28;20024;-37
2023/12/04 03:41:15;;;;;;;14.13;9.50;;;2.20;99.90;;;;;;5079904;28;20028;-37
2023/12/04 03:43:41;;;;;;;13.50;8.50;;;2.20;99.90;;;;;;5079496;28;20028;-37
2023/12/04 03:46:06;;;;;;;15.30;8.93;;;2.20;99.90;;;;;;5080265;28;20047;-37
2023/12/04 03:48:32;;;;;;;13.77;7.90;;;2.20;99.90;;;;;;5080211;28;20028;-36
2023/12/04 03:50:57;;;;;;;13.65;8.05;;;2.20;99.90;;;;;;5076491;28;20456;-37
2023/12/04 03:53:23;;;;;;;13.27;8.45;;;2.10;99.90;;;;;;5079130;28;20028;-37
2023/12/04 03:55:49;;;;;;;13.48;8.82;;;2.10;99.90;;;;;;5074916;28;20868;-38
2023/12/04 03:58:14;;;;;;;12.70;8.40;;;2.10;99.90;;;;;;5065576;28;20761;-37
2023/12/04 04:00:43;;;;;;;13.38;8.75;;;2.10;99.90;;;;;;5062945;28;20066;-37
2023/12/04 04:03:12;;;;;;;12.77;8.48;;;2.10;99.90;;;;;;5067641;28;20392;-36
2023/12/04 04:05:37;;;;;;;15.23;8.77;;;2.10;99.90;;;;;;5062187;28;20826;-36
2023/12/04 04:08:05;;;;;;;13.63;8.57;;;2.10;99.90;;;;;;5070189;28;20025;-37
2023/12/04 04:10:33;;;;;;;11.60;8.10;;;2.10;99.90;;;;;;5060982;28;20024;-37
2023/12/04 04:12:59;;;;;;;13.35;8.35;;;2.00;99.90;;;;;;5070934;28;20039;-37
2023/12/04 04:15:27;;;;;;;11.23;7.72;;;2.00;99.90;;;;;;5061231;28;20226;-36
2023/12/04 04:17:53;;;;;;;13.52;9.30;;;2.00;99.90;;;;;;5071055;28;20043;-37
2023/12/04 04:20:19;;;;;;;12.63;9.13;;;2.00;99.90;;;;;;5060177;28;20472;-36
2023/12/04 04:22:48;;;;;;;12.02;8.73;;;2.00;99.90;;;;;;5066095;28;20027;-37
2023/12/04 04:25:14;;;;;;;12.45;7.88;;;2.00;99.90;;;;;;5079555;28;20071;-37
2023/12/04 04:27:39;;;;;;;12.50;8.77;;;2.00;99.90;;;;;;5066725;28;20131;-37
2023/12/04 04:30:05;;;;;;;13.63;9.20;;;2.00;99.90;;;;;;5080428;28;20020;-36
2023/12/04 04:32:31;;;;;;;10.95;8.10;;;2.00;99.90;;;;;;5068535;28;20020;-37
2023/12/04 04:34:57;;;;;;;13.30;8.88;;;2.00;99.90;;;;;;5077128;28;20764;-36
2023/12/04 04:37:23;;;;;;;14.32;8.93;;;2.00;99.90;;;;;;5071439;28;20043;-38
2023/12/04 04:39:48;;;;;;;12.02;8.20;;;2.00;99.90;;;;;;5073250;28;20031;-38
2023/12/04 04:42:14;;;;;;;13.07;8.05;;;2.00;99.90;;;;;;5073501;28;20032;-36
2023/12/04 04:44:40;;;;;;;13.07;8.57;;;2.00;99.90;;;;;;5072210;28;20426;-36
2023/12/04 04:47:05;;;;;;;11.73;8.15;;;2.00;99.90;;;;;;5075345;28;20031;-36
2023/12/04 04:49:31;;;;;;;13.50;9.20;;;2.00;99.90;;;;;;5070308;28;20036;-38
2023/12/04 04:51:57;;;;;;;12.40;8.10;;;2.00;99.90;;;;;;5077026;28;20020;-36
2023/12/04 04:54:22;;;;;;;11.68;8.10;;;2.00;99.90;;;;;;5068038;28;20020;-38
2023/12/04 04:56:48;;;;;;;11.18;7.78;;;2.00;99.90;;;;;;5078153;28;20373;-38
2023/12/04 04:59:13;;;;;;;12.55;8.98;;;2.00;99.90;;;;;;5066614;28;20067;-38
2023/12/04 05:01:39;;;;;;;12.57;9.13;;;2.00;99.90;;;;;;5058925;28;20034;-38
2023/12/04 05:04:04;;;;;;;12.07;8.30;;;2.00;99.90;;;;;;5071093;28;20131;-38
2023/12/04 05:06:30;;;;;;;13.80;9.60;;;2.00;99.90;;;;;;5058214;28;20101;-37
2023/12/04 05:08:56;;;;;;;12.23;8.48;;;2.00;99.90;;;;;;5073719;28;20067;-38
2023/12/04 05:11:22;;;;;;;12.77;8.30;;;2.00;99.90;;;;;;5062364;28;20048;-38
2023/12/04 05:13:47;;;;;;;12.80;8.98;;;2.00;99.90;;;;;;5072061;28;20030;-38
2023/12/04 05:16:13;;;;;;;12.50;8.65;;;2.00;99.90;;;;;;5047719;28;20051;-39
2023/12/04 05:18:39;;;;;;;12.38;8.43;;;1.90;99.90;;;;;;5070063;28;20137;-38
2023/12/04 05:21:11;;;;;;;11.32;8.38;;;2.00;99.90;;;;;;5067205;28;20051;-38
2023/12/04 05:23:40;;;;;;;12.43;8.75;;;2.00;99.90;;;;;;5068574;28;20020;-38
2023/12/04 05:26:06;;;;;;;10.20;7.53;;;2.00;99.90;;;;;;5082895;28;20032;-38
2023/12/04 05:28:32;;;;;;;11.38;8.45;;;1.90;99.90;;;;;;5078247;28;20169;-38
2023/12/04 05:30:58;;;;;;;11.45;7.95;;;2.00;99.90;;;;;;5073252;28;20403;-38
2023/12/04 05:33:24;;;;;;;11.25;7.70;;;2.00;99.90;;;;;;5081054;28;20381;-38
2023/12/04 05:35:52;;;;;;;12.13;8.05;;;1.90;99.90;;;;;;5062060;28;20542;-38
2023/12/04 05:38:20;;;;;;;11.57;8.45;;;1.90;99.90;;;;;;5064404;28;20055;-38
2023/12/04 05:40:46;;;;;;;11.80;7.57;;;2.00;99.90;;;;;;5073142;28;20021;-38
2023/12/04 05:43:12;;;;;;;11.50;7.90;;;2.00;99.90;;;;;;5062171;28;20024;-38
2023/12/04 05:45:38;;;;;;;11.88;7.90;;;1.90;99.90;;;;;;5070673;28;20032;-38
2023/12/04 05:48:04;;;;;;;11.57;7.82;;;2.00;99.90;;;;;;5082128;28;20165;-37
2023/12/04 05:50:30;;;;;;;13.23;8.18;;;2.00;99.90;;;;;;5069816;28;20054;-37
2023/12/04 05:52:56;;;;;;;11.95;8.35;;;2.00;99.90;;;;;;5081710;28;20036;-39
2023/12/04 05:55:21;;;;;;;11.32;7.90;;;2.00;99.90;;;;;;5076053;28;20060;-38
2023/12/04 05:57:47;;;;;;;12.50;8.55;;;2.00;99.90;;;;;;5082600;28;20149;-38
2023/12/04 06:00:13;;;;;;;12.27;8.18;;;2.00;99.90;;;;;;5082409;28;20107;-38
2023/12/04 06:02:39;;;;;;;10.75;7.45;;;2.00;99.90;;;;;;5081836;28;20792;-39
2023/12/04 06:05:06;;;;;;;11.50;7.80;;;2.00;99.90;;;;;;5081409;28;20032;-38
2023/12/04 06:07:31;;;;;;;9.45;7.55;;;2.00;99.90;;;;;;5081855;28;20494;-41
2023/12/04 06:09:57;;;;;;;9.40;7.05;;;2.00;99.90;;;;;;5080342;28;20020;-38
2023/12/04 06:12:22;;;;;;;11.80;7.25;;;2.00;99.90;;;;;;5082128;28;20036;-38
2023/12/04 06:14:48;;;;;;;11.45;8.18;;;2.00;99.90;;;;;;5081608;28;20418;-38
2023/12/04 06:17:14;;;;;;;11.57;8.02;;;2.00;99.90;;;;;;5081369;28;20157;-38
2023/12/04 06:19:39;;;;;;;9.30;7.18;;;2.00;99.90;;;;;;5080731;28;20476;-38
2023/12/04 06:22:05;;;;;;;11.57;7.63;;;2.00;99.90;;;;;;5081183;28;20085;-38
2023/12/04 06:24:31;;;;;;;9.80;7.45;;;2.10;99.90;;;;;;5081181;28;20040;-38
2023/12/04 06:26:57;;;;;;;9.25;6.47;;;2.10;99.90;;;;;;5081432;28;20032;-37
2023/12/04 06:29:23;;;;;;;10.88;7.95;;;2.10;99.90;;;;;;5081734;28;20059;-40
2023/12/04 06:31:49;;;;;;;8.60;6.78;;;2.10;99.90;;;;;;5079823;28;20071;-38
2023/12/04 06:34:15;;;;;;;11.00;7.82;;;2.10;99.90;;;;;;5081840;28;20556;-38
2023/12/04 06:36:47;;;;;;;11.82;7.38;;;2.10;99.90;;;;;;5081552;28;20828;-38
2023/12/04 06:39:15;;;;;;;10.00;6.60;;;2.10;99.90;;;;;;5080541;28;20028;-38
2023/12/04 06:41:42;;;;;;;10.60;7.45;;;2.10;99.90;;;;;;5078422;28;20285;-38
2023/12/04 06:44:08;;;;;;;10.77;7.60;;;2.10;99.90;;;;;;5080149;28;20032;-38
2023/12/04 06:46:37;;;;;;;10.25;6.78;;;2.10;99.90;;;;;;5079331;28;20086;-38
2023/12/04 06:49:08;;;;;;;11.60;7.57;;;2.10;99.90;;;;;;5080643;28;20020;-37
2023/12/04 06:51:34;;;;;;;10.55;6.80;;;2.10;99.90;;;;;;5079769;28;20416;-39
2023/12/04 06:53:59;;;;;;;9.68;6.80;;;2.10;99.90;;;;;;5080297;28;20016;-38
2023/12/04 06:56:25;;;;;;;9.75;6.90;;;2.10;99.90;;;;;;5079881;28;20079;-43
2023/12/04 06:58:50;;;;;;;9.98;7.38;;;2.10;99.90;;;;;;5078600;28;20037;-38
2023/12/04 07:01:16;;;;;;;9.75;7.05;;;2.10;99.90;;;;;;5080089;28;20383;-38
2023/12/04 07:03:42;;;;;;;10.95;7.22;;;2.10;99.90;;;;;;5079678;28;20256;-38
2023/12/04 07:06:08;;;;;;;8.70;6.90;;;2.10;99.90;;;;;;5079922;28;20726;-38
2023/12/04 07:08:33;;;;;;;11.35;7.75;;;2.10;99.90;;;;;;5080645;28;20016;-38
2023/12/04 07:10:59;;;;;;;10.07;6.68;;;2.10;99.90;;;;;;5080463;28;20036;-38
2023/12/04 07:13:24;;;;;;;10.10;7.03;;;2.10;99.90;;;;;;5079661;28;20038;-38
2023/12/04 07:15:51;;;;;;;10.85;7.57;;;2.10;99.90;;;;;;5079980;28;20059;-38
2023/12/04 07:18:16;;;;;;;9.35;6.88;;;2.10;99.90;;;;;;5080412;28;20583;-37
2023/12/04 07:20:42;;;;;;;9.02;6.68;;;2.20;99.90;;;;;;5079425;28;20036;-38
2023/12/04 07:23:08;;;;;;;9.05;6.30;;;2.10;99.90;;;;;;5079205;28;20062;-38
2023/12/04 07:25:33;;;;;;;9.43;6.57;;;2.20;99.90;;;;;;5079775;28;20047;-38
2023/12/04 07:27:59;;;;;;;9.65;6.47;;;2.10;99.90;;;;;;5078559;28;20550;-38
2023/12/04 07:30:25;;;;;;;10.57;6.80;;;2.10;99.90;;;;;;5079146;28;20027;-38
2023/12/04 07:32:51;;;;;;;10.13;7.10;;;2.20;99.90;;;;;;5078651;28;20062;-38
2023/12/04 07:35:18;;;;;;;10.32;6.97;;;2.10;99.90;;;;;;5078641;28;20143;-38
2023/12/04 07:37:44;;;;;;;10.40;7.25;;;2.10;99.90;;;;;;5079014;28;20077;-38
2023/12/04 07:40:10;;;;;;;9.85;7.22;;;2.10;99.90;;;;;;5079213;28;20037;-38
2023/12/04 07:42:38;;;;;;;9.25;6.78;;;2.10;99.90;;;;;;5077705;28;20031;-37
2023/12/04 07:45:04;;;;;;;9.10;6.63;;;2.10;99.90;;;;;;5079068;28;20050;-37
2023/12/04 07:47:30;;;;;;;9.00;6.75;;;2.10;99.90;;;;;;5079903;28;20042;-37
2023/12/04 07:49:55;;;;;;;9.35;6.45;;;2.10;99.90;;;;;;5079202;28;20028;-36
2023/12/04 07:52:21;;;;;;;9.88;7.18;;;2.10;99.90;;;;;;5080284;28;20035;-39
2023/12/04 07:54:46;;;;;;;8.90;6.43;;;2.10;99.90;;;;;;5078960;28;20096;-39
2023/12/04 07:57:12;;;;;;;8.93;6.38;;;2.20;99.90;;;;;;5080142;28;20028;-37
2023/12/04 07:59:38;;;;;;;8.57;6.50;;;2.20;99.90;;;;;;5067541;28;20024;-37
2023/12/04 08:02:03;;;;;;;10.07;6.68;;;2.20;99.90;;;;;;5038609;28;20751;-37
2023/12/04 08:04:29;;;;;;;9.13;6.22;;;2.20;99.90;;;;;;5063942;28;20052;-38
2023/12/04 08:06:55;;;;;;;8.25;6.15;;;2.20;99.90;;;;;;5061657;28;20047;-37
2023/12/04 08:09:20;;;;;;;8.18;5.95;;;2.20;99.90;;;;;;5066503;28;20020;-38
2023/12/04 08:11:46;;;;;;;8.15;6.22;;;2.20;99.90;;;;;;5064423;28;20029;-39
2023/12/04 08:14:12;;;;;;;7.90;5.75;;;2.30;99.90;;;;;;5063459;28;20130;-38
2023/12/04 08:16:38;;;;;;;8.32;6.30;;;2.30;99.90;;;;;;5066902;28;20033;-37
2023/12/04 08:19:03;;;;;;;7.82;6.00;;;2.30;99.90;;;;;;5060418;28;20067;-38
2023/12/04 08:21:29;;;;;;;7.50;6.03;;;2.30;99.90;;;;;;5070346;28;20033;-39
2023/12/04 08:23:54;;;;;;;8.07;5.85;;;2.30;99.90;;;;;;5058817;28;20114;-38
2023/12/04 08:26:29;;;;;;;7.93;5.95;;;2.40;99.90;;;;;;5070573;28;20036;-38
2023/12/04 08:28:56;;;;;;;6.75;5.68;;;2.40;99.90;;;;;;5060493;28;20024;-38
2023/12/04 08:31:22;;;;;;;9.77;5.88;;;2.40;99.90;;;;;;5069485;28;20569;-38
2023/12/04 08:33:47;;;;;;;9.00;5.80;;;2.40;99.90;;;;;;5058996;28;20052;-39
2023/12/04 08:36:13;;;;;;;8.73;6.03;;;2.40;99.90;;;;;;5071334;28;20021;-43
2023/12/04 08:38:39;;;;;;;8.57;5.60;;;2.50;99.90;;;;;;5058317;28;20020;-39
2023/12/04 08:41:04;;;;;;;6.82;4.95;;;2.50;99.90;;;;;;5072176;28;20078;-38
2023/12/04 08:43:31;;;;;;;7.28;5.43;;;2.50;99.90;;;;;;5061796;28;20521;-38
2023/12/04 08:45:57;;;;;;;7.43;5.53;;;2.50;99.90;;;;;;5072603;28;20550;-37
2023/12/04 08:48:22;;;;;;;6.68;5.13;;;2.50;99.90;;;;;;5065044;28;20035;-38
2023/12/04 08:50:48;;;;;;;8.52;6.18;;;2.50;99.90;;;;;;5071243;28;20030;-38
2023/12/04 08:53:14;;;;;;;7.45;5.45;;;2.50;99.90;;;;;;5066952;28;20035;-37
2023/12/04 08:55:40;;;;;;;8.43;6.10;;;2.50;99.90;;;;;;5067581;28;20514;-37
2023/12/04 08:58:05;;;;;;;7.70;5.70;;;2.60;99.90;;;;;;5068765;28;20119;-38
2023/12/04 09:00:35;;;;;;;8.23;5.82;;;2.60;99.90;;;;;;5065538;28;20063;-39
2023/12/04 09:03:01;;;;;;;7.35;5.60;;;2.60;99.90;;;;;;5072482;28;20020;-37
2023/12/04 09:05:27;;;;;;;7.82;5.07;;;2.60;99.90;;;;;;5064218;28;20391;-41
2023/12/04 09:07:53;;;;;;;8.70;5.78;;;2.60;99.90;;;;;;5073695;28;20031;-38
2023/12/04 09:10:19;;;;;;;9.25;5.97;;;2.70;99.90;;;;;;5064426;28;20032;-38
2023/12/04 09:12:45;;;;;;;8.73;5.78;;;2.70;99.90;;;;;;5073090;28;20028;-38
2023/12/04 09:15:11;;;;;;;7.53;5.85;;;2.70;99.90;;;;;;5063011;28;20101;-37
2023/12/04 09:17:37;;;;;;;9.23;6.70;;;2.70;99.90;;;;;;5075364;28;20012;-38
2023/12/04 09:20:05;;;;;;;8.88;6.63;;;2.70;99.90;;;;;;5061491;28;20498;-39
2023/12/04 09:22:31;;;;;;;8.32;5.93;;;2.70;99.90;;;;;;5075486;28;20035;-38
2023/12/04 09:24:56;;;;;;;8.77;6.32;;;2.80;99.90;;;;;;5061613;28;20036;-39
2023/12/04 09:27:25;;;;;;;8.45;6.20;;;2.70;99.90;;;;;;5073286;28;20114;-37
2023/12/04 09:29:51;;;;;;;7.10;5.45;;;2.80;99.90;;;;;;5063022;28;20075;-38
2023/12/04 09:32:17;;;;;;;8.35;6.85;;;2.80;99.90;;;;;;5070922;28;20677;-37
2023/12/04 09:34:43;;;;;;;9.40;6.90;;;2.80;99.90;;;;;;5064491;28;20147;-38
2023/12/04 09:37:08;;;;;;;10.38;7.10;;;2.80;99.90;;;;;;5068636;28;20024;-36
2023/12/04 09:39:34;;;;;;;9.40;6.80;;;2.80;99.90;;;;;;5069225;28;20631;-37
2023/12/04 09:42:01;;;;;;;8.82;6.68;;;2.90;99.90;;;;;;5064446;28;20151;-38
2023/12/04 09:44:28;;;;;;;9.63;7.05;;;2.90;99.90;;;;;;5071160;28;20044;-38
2023/12/04 09:46:54;;;;;;;9.18;6.93;;;2.90;99.90;;;;;;5061466;28;20626;-38
2023/12/04 09:49:20;;;;;;;9.95;7.57;;;2.90;99.90;;;;;;5059964;28;20076;-38
2023/12/04 09:51:46;;;;;;;8.63;6.20;;;3.00;99.90;;;;;;5080828;28;20035;-37
2023/12/04 09:54:12;;;;;;;9.25;6.88;;;3.00;99.90;;;;;;5070585;28;20147;-39
2023/12/04 09:56:38;;;;;;;9.63;6.63;;;3.00;99.90;;;;;;5081268;28;20071;-38
2023/12/04 09:59:06;;;;;;;10.93;7.28;;;3.00;99.90;;;;;;5069048;28;20135;-39
2023/12/04 10:01:32;;;;;;;10.02;6.80;;;3.10;99.90;;;;;;5081844;28;20665;-38
2023/12/04 10:03:59;;;;;;;10.38;6.95;;;3.10;99.90;;;;;;5068866;28;20042;-38
2023/12/04 10:06:30;;;;;;;9.32;7.10;;;3.10;99.90;;;;;;5082130;28;20147;-38
2023/12/04 10:08:58;;;;;;;9.10;7.10;;;3.10;99.90;;;;;;5068004;28;20021;-38
2023/12/04 10:11:24;;;;;;;12.48;8.32;;;3.10;99.90;;;;;;5062915;28;20027;-37
2023/12/04 10:13:50;;;;;;;9.43;6.95;;;3.10;99.90;;;;;;5071331;28;20093;-37
2023/12/04 10:16:32;;;;;;;12.88;7.97;;;3.10;99.90;;;;;;5064073;28;20029;-37
2023/12/04 10:19:18;;;;;;;9.57;7.05;;;3.20;99.90;;;;;;5071280;28;20373;-37
2023/12/04 10:21:45;;;;;;;9.60;6.80;;;3.20;99.90;;;;;;5041561;28;20029;-38
2023/12/04 10:24:10;;;;;;;10.57;7.45;;;3.20;99.90;;;;;;5065036;28;20452;-37
2023/12/04 10:26:36;;;;;;;9.43;6.82;;;3.30;99.90;;;;;;5063930;28;20032;-37
2023/12/04 10:29:04;;;;;;;10.82;6.38;;;3.30;99.90;;;;;;5065844;28;20690;-37
2023/12/04 10:31:34;;;;;;;8.35;6.25;;;3.30;99.90;;;;;;5076961;28;20028;-36
2023/12/04 10:34:01;;;;;;;8.52;6.55;;;3.30;99.90;;;;;;5077398;28;20024;-38
2023/12/04 10:36:27;;;;;;;7.93;6.18;;;3.30;99.90;;;;;;5067684;28;20028;-38
2023/12/04 10:39:05;;;;;;;8.60;6.38;;;3.40;99.90;;;;;;5064234;28;20426;-38
2023/12/04 10:41:31;;;;;;;8.27;6.15;;;3.40;99.90;;;;;;5068525;28;20818;-38
2023/12/04 10:43:58;;;;;;;8.63;6.78;;;3.40;99.90;;;;;;5062904;28;20021;-37
2023/12/04 10:46:25;;;;;;;9.20;6.57;;;3.40;99.90;;;;;;5071541;28;20037;-37
2023/12/04 10:48:51;;;;;;;8.18;6.38;;;3.40;99.90;;;;;;5062312;28;20283;-37
2023/12/04 10:51:17;;;;;;;10.10;6.80;;;3.40;99.90;;;;;;5072640;28;20028;-38
2023/12/04 10:53:44;;;;;;;9.07;7.20;;;3.40;99.90;;;;;;5063112;28;20032;-39
2023/12/04 10:56:13;;;;;;;9.35;7.45;;;3.40;99.90;;;;;;5071920;28;20488;-38
2023/12/04 10:58:41;;;;;;;9.70;7.25;;;3.40;99.90;;;;;;5060599;28;20379;-38
2023/12/04 11:01:12;;;;;;;10.85;7.70;;;3.40;99.90;;;;;;5072790;28;20120;-38
2023/12/04 11:03:44;;;;;;;10.10;7.75;;;3.50;99.90;;;;;;5061087;28;20020;-39
2023/12/04 11:06:16;;;;;;;9.32;7.28;;;3.50;99.90;;;;;;5071867;28;20074;-37
2023/12/04 11:08:43;;;;;;;8.88;6.75;;;3.50;99.90;;;;;;5060714;28;20037;-43
2023/12/04 11:11:14;;;;;;;9.82;7.47;;;3.50;99.90;;;;;;5073059;28;20442;-38
2023/12/04 11:13:42;;;;;;;9.23;7.10;;;3.60;99.90;;;;;;5060779;28;20027;-38
2023/12/04 11:16:20;;;;;;;10.77;7.60;;;3.60;99.90;;;;;;5073190;28;20078;-38
2023/12/04 11:18:52;;;;;;;10.98;7.65;;;3.60;99.90;;;;;;5040449;28;20082;-38
2023/12/04 11:21:20;;;;;;;8.20;6.63;;;3.60;99.90;;;;;;5069019;28;20040;-38
2023/12/04 11:23:46;;;;;;;10.07;7.22;;;3.60;99.90;;;;;;5059514;28;20029;-38
2023/12/04 11:26:12;;;;;;;7.85;6.28;;;3.60;99.90;;;;;;5066930;28;20044;-38
2023/12/04 11:28:39;;;;;;;10.07;7.45;;;3.60;99.90;;;;;;5063375;28;20807;-42
2023/12/04 11:31:05;;;;;;;10.35;7.55;;;3.60;99.90;;;;;;5067414;28;20028;-38
2023/12/04 11:33:40;;;;;;;10.63;7.43;;;3.60;99.90;;;;;;5064750;28;20036;-38
2023/12/04 11:36:14;;;;;;;8.57;6.63;;;3.60;99.90;;;;;;5066284;28;20677;-39
2023/12/04 11:38:48;;;;;;;9.60;7.53;;;3.60;99.90;;;;;;5065536;28;20020;-38
2023/12/04 11:41:19;;;;;;;9.50;7.10;;;3.60;99.90;;;;;;5066026;28;20115;-38
2023/12/04 11:43:47;;;;;;;9.55;7.28;;;3.60;99.90;;;;;;5066026;28;20647;-38
2023/12/04 11:46:14;;;;;;;10.65;7.18;;;3.60;99.90;;;;;;5063559;28;20429;-38
2023/12/04 11:48:40;;;;;;;10.65;7.57;;;3.60;99.90;;;;;;5067887;28;20024;-44
2023/12/04 11:51:08;;;;;;;9.52;7.15;;;3.60;99.90;;;;;;5061617;28;20043;-38
2023/12/04 11:53:39;;;;;;;10.43;8.18;;;3.60;99.90;;;;;;5070226;28;20115;-40
2023/12/04 11:56:12;;;;;;;8.60;7.28;;;3.60;99.90;;;;;;5067753;28;20055;-38
2023/12/04 11:58:45;;;;;;;10.15;7.07;;;3.60;99.90;;;;;;5068156;28;20462;-39
2023/12/04 12:01:11;;;;;;;11.27;7.47;;;3.60;99.90;;;;;;5079311;28;20026;-37
2023/12/04 12:03:37;;;;;;;9.20;6.65;;;3.60;99.90;;;;;;5080760;28;20114;-38
2023/12/04 12:06:04;;;;;;;9.18;6.53;;;3.60;99.90;;;;;;5079315;28;20047;-37
2023/12/04 12:08:31;;;;;;;8.98;6.63;;;3.60;99.90;;;;;;5079971;28;20019;-37
2023/12/04 12:10:57;;;;;;;8.57;6.78;;;3.60;99.90;;;;;;5079949;28;20118;-38
2023/12/04 12:13:32;;;;;;;9.30;6.53;;;3.60;99.90;;;;;;5079932;28;20020;-37
2023/12/04 12:15:59;;;;;;;8.40;6.45;;;3.60;99.90;;;;;;5079105;28;20056;-37
2023/12/04 12:18:25;;;;;;;9.95;6.70;;;3.60;99.90;;;;;;5080551;28;20086;-37
2023/12/04 12:20:50;;;;;;;10.40;7.82;;;3.60;99.90;;;;;;5078953;28;20040;-39
2023/12/04 12:23:16;;;;;;;9.82;7.07;;;3.60;99.90;;;;;;5079649;28;20558;-37
2023/12/04 12:25:42;;;;;;;9.15;6.63;;;3.60;99.90;;;;;;5079858;28;20082;-38
2023/12/04 12:28:08;;;;;;;8.23;6.25;;;3.60;99.90;;;;;;5079694;28;20036;-38
2023/12/04 12:30:33;;;;;;;9.85;6.72;;;3.60;99.90;;;;;;5079800;28;20063;-36
2023/12/04 12:33:05;;;;;;;8.82;6.68;;;3.60;99.90;;;;;;5079568;28;20206;-37
2023/12/04 12:35:31;;;;;;;10.35;6.82;;;3.70;99.90;;;;;;5079604;28;20678;-37
2023/12/04 12:37:56;;;;;;;7.70;6.22;;;3.70;99.90;;;;;;5078903;28;20104;-37
2023/12/04 12:40:22;;;;;;;9.02;6.78;;;3.60;99.90;;;;;;5080696;28;20084;-38
2023/12/04 12:42:48;;;;;;;9.95;6.72;;;3.70;99.90;;;;;;5079926;28;20024;-37
2023/12/04 12:45:14;;;;;;;9.88;7.03;;;3.60;99.90;;;;;;5079385;28;20100;-37